sensor_id;sensor_type;location;lat;lon;timestamp;P1;durP1;ratioP1;P2;durP2;ratioP2
58874;SDS011;44652;49.040;12.126;2023-02-12T00:00:12;58.00;;;36.63;;
58874;SDS011;44652;49.040;12.126;2023-02-12T00:02:40;61.10;;;36.95;;
58874;SDS011;44652;49.040;12.126;2023-02-12T00:05:07;61.38;;;38.70;;
58874;SDS011;44652;49.040;12.126;2023-02-12T00:07:33;65.57;;;38.95;;
58874;SDS011;44652;49.040;12.126;2023-02-12T00:10:00;58.47;;;37.92;;
58874;SDS011;44652;49.040;12.126;2023-02-12T00:12:27;61.35;;;38.42;;
58874;SDS011;44652;49.040;12.126;2023-02-12T00:14:53;56.50;;;35.42;;
58874;SDS011;44652;49.040;12.126;2023-02-12T00:17:20;62.17;;;37.75;;
58874;SDS011;44652;49.040;12.126;2023-02-12T00:19:46;58.58;;;37.70;;
58874;SDS011;44652;49.040;12.126;2023-02-12T00:22:13;59.83;;;38.40;;
58874;SDS011;44652;49.040;12.126;2023-02-12T00:24:40;59.67;;;36.30;;
58874;SDS011;44652;49.040;12.126;2023-02-12T00:27:06;59.63;;;37.60;;
58874;SDS011;44652;49.040;12.126;2023-02-12T00:29:33;56.53;;;35.45;;
58874;SDS011;44652;49.040;12.126;2023-02-12T00:31:59;50.58;;;33.65;;
58874;SDS011;44652;49.040;12.126;2023-02-12T00:34:26;57.55;;;36.50;;
58874;SDS011;44652;49.040;12.126;2023-02-12T00:36:52;54.78;;;36.00;;
58874;SDS011;44652;49.040;12.126;2023-02-12T00:39:19;57.97;;;37.13;;
58874;SDS011;44652;49.040;12.126;2023-02-12T00:41:45;61.67;;;39.08;;
58874;SDS011;44652;49.040;12.126;2023-02-12T00:44:12;60.17;;;39.58;;
58874;SDS011;44652;49.040;12.126;2023-02-12T00:46:39;65.60;;;42.40;;
58874;SDS011;44652;49.040;12.126;2023-02-12T00:49:06;65.97;;;40.30;;
58874;SDS011;44652;49.040;12.126;2023-02-12T00:51:33;60.70;;;38.35;;
58874;SDS011;44652;49.040;12.126;2023-02-12T00:54:00;57.53;;;36.72;;
58874;SDS011;44652;49.040;12.126;2023-02-12T00:56:26;60.45;;;37.20;;
58874;SDS011;44652;49.040;12.126;2023-02-12T00:58:53;60.13;;;37.45;;
58874;SDS011;44652;49.040;12.126;2023-02-12T01:01:19;54.75;;;36.45;;
58874;SDS011;44652;49.040;12.126;2023-02-12T01:03:46;57.30;;;36.22;;
58874;SDS011;44652;49.040;12.126;2023-02-12T01:06:12;58.58;;;36.30;;
58874;SDS011;44652;49.040;12.126;2023-02-12T01:08:39;53.15;;;34.47;;
58874;SDS011;44652;49.040;12.126;2023-02-12T01:11:05;55.20;;;33.40;;
58874;SDS011;44652;49.040;12.126;2023-02-12T01:13:32;49.50;;;32.55;;
58874;SDS011;44652;49.040;12.126;2023-02-12T01:16:06;46.05;;;30.38;;
58874;SDS011;44652;49.040;12.126;2023-02-12T01:18:38;43.47;;;30.13;;
58874;SDS011;44652;49.040;12.126;2023-02-12T01:21:08;49.33;;;30.08;;
58874;SDS011;44652;49.040;12.126;2023-02-12T01:23:35;46.95;;;30.77;;
58874;SDS011;44652;49.040;12.126;2023-02-12T01:26:01;48.10;;;30.35;;
58874;SDS011;44652;49.040;12.126;2023-02-12T01:28:28;48.70;;;29.48;;
58874;SDS011;44652;49.040;12.126;2023-02-12T01:30:54;47.53;;;30.63;;
58874;SDS011;44652;49.040;12.126;2023-02-12T01:33:21;44.72;;;28.88;;
58874;SDS011;44652;49.040;12.126;2023-02-12T01:35:48;50.60;;;32.60;;
58874;SDS011;44652;49.040;12.126;2023-02-12T01:38:14;60.40;;;36.80;;
58874;SDS011;44652;49.040;12.126;2023-02-12T01:40:41;54.00;;;35.58;;
58874;SDS011;44652;49.040;12.126;2023-02-12T01:43:10;54.72;;;35.47;;
58874;SDS011;44652;49.040;12.126;2023-02-12T01:45:41;53.22;;;34.25;;
58874;SDS011;44652;49.040;12.126;2023-02-12T01:48:11;54.17;;;33.78;;
58874;SDS011;44652;49.040;12.126;2023-02-12T01:50:38;48.97;;;31.38;;
58874;SDS011;44652;49.040;12.126;2023-02-12T01:53:06;45.25;;;31.15;;
58874;SDS011;44652;49.040;12.126;2023-02-12T01:55:33;45.80;;;30.25;;
58874;SDS011;44652;49.040;12.126;2023-02-12T01:58:00;44.10;;;29.65;;
58874;SDS011;44652;49.040;12.126;2023-02-12T02:00:26;46.10;;;29.90;;
58874;SDS011;44652;49.040;12.126;2023-02-12T02:02:54;42.70;;;27.60;;
58874;SDS011;44652;49.040;12.126;2023-02-12T02:05:23;41.13;;;27.98;;
58874;SDS011;44652;49.040;12.126;2023-02-12T02:07:52;45.67;;;31.02;;
58874;SDS011;44652;49.040;12.126;2023-02-12T02:10:19;47.28;;;31.20;;
58874;SDS011;44652;49.040;12.126;2023-02-12T02:12:45;43.83;;;29.55;;
58874;SDS011;44652;49.040;12.126;2023-02-12T02:15:31;45.90;;;29.65;;
58874;SDS011;44652;49.040;12.126;2023-02-12T02:18:00;43.97;;;29.08;;
58874;SDS011;44652;49.040;12.126;2023-02-12T02:20:32;42.22;;;27.48;;
58874;SDS011;44652;49.040;12.126;2023-02-12T02:25:45;42.83;;;27.75;;
58874;SDS011;44652;49.040;12.126;2023-02-12T02:33:24;44.33;;;28.02;;
58874;SDS011;44652;49.040;12.126;2023-02-12T02:35:59;39.28;;;26.52;;
58874;SDS011;44652;49.040;12.126;2023-02-12T02:38:36;37.42;;;25.10;;
58874;SDS011;44652;49.040;12.126;2023-02-12T02:43:37;40.10;;;26.42;;
58874;SDS011;44652;49.040;12.126;2023-02-12T02:46:11;42.88;;;26.45;;
58874;SDS011;44652;49.040;12.126;2023-02-12T02:48:41;40.33;;;27.50;;
58874;SDS011;44652;49.040;12.126;2023-02-12T02:51:13;42.25;;;27.02;;
58874;SDS011;44652;49.040;12.126;2023-02-12T02:53:42;45.08;;;27.35;;
58874;SDS011;44652;49.040;12.126;2023-02-12T02:56:11;43.80;;;26.77;;
58874;SDS011;44652;49.040;12.126;2023-02-12T02:58:43;38.67;;;25.70;;
58874;SDS011;44652;49.040;12.126;2023-02-12T03:01:16;42.75;;;27.38;;
58874;SDS011;44652;49.040;12.126;2023-02-12T03:03:55;41.92;;;25.77;;
58874;SDS011;44652;49.040;12.126;2023-02-12T03:06:29;41.55;;;27.52;;
58874;SDS011;44652;49.040;12.126;2023-02-12T03:08:56;41.22;;;27.67;;
58874;SDS011;44652;49.040;12.126;2023-02-12T03:11:26;43.88;;;27.85;;
58874;SDS011;44652;49.040;12.126;2023-02-12T03:16:27;53.78;;;33.63;;
58874;SDS011;44652;49.040;12.126;2023-02-12T03:19:02;51.75;;;32.97;;
58874;SDS011;44652;49.040;12.126;2023-02-12T03:21:32;47.90;;;31.33;;
58874;SDS011;44652;49.040;12.126;2023-02-12T03:24:00;48.00;;;30.35;;
58874;SDS011;44652;49.040;12.126;2023-02-12T03:26:50;41.63;;;28.52;;
58874;SDS011;44652;49.040;12.126;2023-02-12T03:29:14;48.55;;;30.30;;
58874;SDS011;44652;49.040;12.126;2023-02-12T03:31:51;42.63;;;29.25;;
58874;SDS011;44652;49.040;12.126;2023-02-12T03:36:53;38.90;;;26.55;;
58874;SDS011;44652;49.040;12.126;2023-02-12T03:42:08;44.08;;;28.30;;
58874;SDS011;44652;49.040;12.126;2023-02-12T03:44:39;38.05;;;26.17;;
58874;SDS011;44652;49.040;12.126;2023-02-12T03:47:14;37.10;;;26.23;;
58874;SDS011;44652;49.040;12.126;2023-02-12T03:52:09;51.67;;;33.40;;
58874;SDS011;44652;49.040;12.126;2023-02-12T03:54:36;47.45;;;30.20;;
58874;SDS011;44652;49.040;12.126;2023-02-12T03:57:04;48.08;;;31.48;;
58874;SDS011;44652;49.040;12.126;2023-02-12T03:59:33;52.28;;;32.63;;
58874;SDS011;44652;49.040;12.126;2023-02-12T04:02:01;49.67;;;33.13;;
58874;SDS011;44652;49.040;12.126;2023-02-12T04:04:27;50.03;;;34.33;;
58874;SDS011;44652;49.040;12.126;2023-02-12T04:06:54;51.58;;;33.65;;
58874;SDS011;44652;49.040;12.126;2023-02-12T04:09:21;51.38;;;32.83;;
58874;SDS011;44652;49.040;12.126;2023-02-12T04:25:45;41.70;;;27.20;;
58874;SDS011;44652;49.040;12.126;2023-02-12T04:28:22;46.17;;;29.48;;
58874;SDS011;44652;49.040;12.126;2023-02-12T04:36:26;44.75;;;27.80;;
58874;SDS011;44652;49.040;12.126;2023-02-12T04:38:56;45.67;;;28.50;;
58874;SDS011;44652;49.040;12.126;2023-02-12T04:41:24;41.47;;;27.83;;
58874;SDS011;44652;49.040;12.126;2023-02-12T04:43:51;46.22;;;28.17;;
58874;SDS011;44652;49.040;12.126;2023-02-12T04:46:17;49.13;;;30.40;;
58874;SDS011;44652;49.040;12.126;2023-02-12T04:48:54;47.58;;;28.88;;
58874;SDS011;44652;49.040;12.126;2023-02-12T04:51:22;48.67;;;28.63;;
58874;SDS011;44652;49.040;12.126;2023-02-12T04:53:48;45.28;;;28.65;;
58874;SDS011;44652;49.040;12.126;2023-02-12T04:56:15;44.10;;;28.58;;
58874;SDS011;44652;49.040;12.126;2023-02-12T04:58:42;47.58;;;28.48;;
58874;SDS011;44652;49.040;12.126;2023-02-12T05:01:08;46.67;;;28.77;;
58874;SDS011;44652;49.040;12.126;2023-02-12T05:03:35;48.05;;;27.92;;
58874;SDS011;44652;49.040;12.126;2023-02-12T05:06:03;44.70;;;27.08;;
58874;SDS011;44652;49.040;12.126;2023-02-12T05:08:29;41.85;;;26.05;;
58874;SDS011;44652;49.040;12.126;2023-02-12T05:10:56;44.38;;;26.98;;
58874;SDS011;44652;49.040;12.126;2023-02-12T05:13:22;41.53;;;26.02;;
58874;SDS011;44652;49.040;12.126;2023-02-12T05:15:49;44.33;;;27.33;;
58874;SDS011;44652;49.040;12.126;2023-02-12T05:18:15;47.10;;;29.13;;
58874;SDS011;44652;49.040;12.126;2023-02-12T05:20:42;41.92;;;26.83;;
58874;SDS011;44652;49.040;12.126;2023-02-12T05:23:08;40.05;;;25.25;;
58874;SDS011;44652;49.040;12.126;2023-02-12T05:25:35;47.33;;;27.80;;
58874;SDS011;44652;49.040;12.126;2023-02-12T05:28:01;40.20;;;26.73;;
58874;SDS011;44652;49.040;12.126;2023-02-12T05:30:28;40.42;;;27.35;;
58874;SDS011;44652;49.040;12.126;2023-02-12T05:32:54;46.33;;;27.70;;
58874;SDS011;44652;49.040;12.126;2023-02-12T05:35:21;39.20;;;25.10;;
58874;SDS011;44652;49.040;12.126;2023-02-12T05:37:47;43.70;;;28.13;;
58874;SDS011;44652;49.040;12.126;2023-02-12T05:40:14;39.88;;;25.75;;
58874;SDS011;44652;49.040;12.126;2023-02-12T05:42:40;42.75;;;26.23;;
58874;SDS011;44652;49.040;12.126;2023-02-12T05:45:07;45.33;;;27.55;;
58874;SDS011;44652;49.040;12.126;2023-02-12T05:47:33;39.28;;;27.30;;
58874;SDS011;44652;49.040;12.126;2023-02-12T05:50:00;41.35;;;28.50;;
58874;SDS011;44652;49.040;12.126;2023-02-12T05:52:26;41.50;;;27.42;;
58874;SDS011;44652;49.040;12.126;2023-02-12T05:54:53;46.40;;;30.05;;
58874;SDS011;44652;49.040;12.126;2023-02-12T05:57:19;49.15;;;30.73;;
58874;SDS011;44652;49.040;12.126;2023-02-12T05:59:46;51.85;;;34.10;;
58874;SDS011;44652;49.040;12.126;2023-02-12T06:02:12;47.60;;;32.60;;
58874;SDS011;44652;49.040;12.126;2023-02-12T06:04:39;50.65;;;32.25;;
58874;SDS011;44652;49.040;12.126;2023-02-12T06:07:05;45.58;;;29.88;;
58874;SDS011;44652;49.040;12.126;2023-02-12T06:09:33;51.22;;;30.80;;
58874;SDS011;44652;49.040;12.126;2023-02-12T06:12:00;47.20;;;31.10;;
58874;SDS011;44652;49.040;12.126;2023-02-12T06:14:27;45.35;;;30.25;;
58874;SDS011;44652;49.040;12.126;2023-02-12T06:16:57;53.30;;;31.23;;
58874;SDS011;44652;49.040;12.126;2023-02-12T06:19:23;45.47;;;29.42;;
58874;SDS011;44652;49.040;12.126;2023-02-12T06:21:50;55.25;;;33.83;;
58874;SDS011;44652;49.040;12.126;2023-02-12T06:24:16;53.78;;;32.72;;
58874;SDS011;44652;49.040;12.126;2023-02-12T06:26:43;54.22;;;34.33;;
58874;SDS011;44652;49.040;12.126;2023-02-12T06:29:09;57.13;;;34.40;;
58874;SDS011;44652;49.040;12.126;2023-02-12T06:31:36;59.38;;;33.70;;
58874;SDS011;44652;49.040;12.126;2023-02-12T06:34:04;52.42;;;32.80;;
58874;SDS011;44652;49.040;12.126;2023-02-12T06:36:31;53.47;;;31.20;;
58874;SDS011;44652;49.040;12.126;2023-02-12T06:38:59;53.78;;;32.00;;
58874;SDS011;44652;49.040;12.126;2023-02-12T06:41:26;58.60;;;32.50;;
58874;SDS011;44652;49.040;12.126;2023-02-12T06:43:52;56.10;;;32.30;;
58874;SDS011;44652;49.040;12.126;2023-02-12T06:46:19;54.75;;;32.63;;
58874;SDS011;44652;49.040;12.126;2023-02-12T06:48:45;54.25;;;31.75;;
58874;SDS011;44652;49.040;12.126;2023-02-12T06:51:13;54.03;;;31.98;;
58874;SDS011;44652;49.040;12.126;2023-02-12T06:53:40;58.28;;;32.95;;
58874;SDS011;44652;49.040;12.126;2023-02-12T06:56:07;53.42;;;32.35;;
58874;SDS011;44652;49.040;12.126;2023-02-12T06:58:39;52.60;;;31.58;;
58874;SDS011;44652;49.040;12.126;2023-02-12T07:03:39;54.35;;;32.80;;
58874;SDS011;44652;49.040;12.126;2023-02-12T07:06:06;63.17;;;36.22;;
58874;SDS011;44652;49.040;12.126;2023-02-12T07:08:33;65.43;;;38.72;;
58874;SDS011;44652;49.040;12.126;2023-02-12T07:11:00;60.90;;;36.83;;
58874;SDS011;44652;49.040;12.126;2023-02-12T07:13:26;58.63;;;36.55;;
58874;SDS011;44652;49.040;12.126;2023-02-12T07:15:53;55.88;;;36.17;;
58874;SDS011;44652;49.040;12.126;2023-02-12T07:18:20;48.37;;;31.57;;
58874;SDS011;44652;49.040;12.126;2023-02-12T07:20:46;50.85;;;33.65;;
58874;SDS011;44652;49.040;12.126;2023-02-12T07:23:13;51.38;;;32.60;;
58874;SDS011;44652;49.040;12.126;2023-02-12T07:25:39;49.28;;;32.15;;
58874;SDS011;44652;49.040;12.126;2023-02-12T07:28:06;50.63;;;31.73;;
58874;SDS011;44652;49.040;12.126;2023-02-12T07:30:32;47.78;;;30.20;;
58874;SDS011;44652;49.040;12.126;2023-02-12T07:32:59;46.55;;;29.02;;
58874;SDS011;44652;49.040;12.126;2023-02-12T07:35:25;44.90;;;27.95;;
58874;SDS011;44652;49.040;12.126;2023-02-12T07:37:52;49.75;;;28.88;;
58874;SDS011;44652;49.040;12.126;2023-02-12T07:40:18;51.35;;;28.83;;
58874;SDS011;44652;49.040;12.126;2023-02-12T07:42:45;47.72;;;27.45;;
58874;SDS011;44652;49.040;12.126;2023-02-12T07:45:15;53.42;;;29.27;;
58874;SDS011;44652;49.040;12.126;2023-02-12T07:47:42;52.00;;;28.92;;
58874;SDS011;44652;49.040;12.126;2023-02-12T07:50:08;49.00;;;28.60;;
58874;SDS011;44652;49.040;12.126;2023-02-12T07:52:35;53.47;;;29.60;;
58874;SDS011;44652;49.040;12.126;2023-02-12T07:55:01;48.38;;;28.67;;
58874;SDS011;44652;49.040;12.126;2023-02-12T07:57:28;57.65;;;30.45;;
58874;SDS011;44652;49.040;12.126;2023-02-12T07:59:55;45.97;;;28.55;;
58874;SDS011;44652;49.040;12.126;2023-02-12T08:02:21;53.95;;;30.88;;
58874;SDS011;44652;49.040;12.126;2023-02-12T08:04:54;55.63;;;30.88;;
58874;SDS011;44652;49.040;12.126;2023-02-12T08:07:22;52.25;;;29.77;;
58874;SDS011;44652;49.040;12.126;2023-02-12T08:09:48;52.65;;;30.60;;
58874;SDS011;44652;49.040;12.126;2023-02-12T08:12:16;52.88;;;31.13;;
58874;SDS011;44652;49.040;12.126;2023-02-12T08:14:43;56.65;;;31.80;;
58874;SDS011;44652;49.040;12.126;2023-02-12T08:17:09;53.58;;;29.15;;
58874;SDS011;44652;49.040;12.126;2023-02-12T08:19:36;57.95;;;31.85;;
58874;SDS011;44652;49.040;12.126;2023-02-12T08:22:03;56.10;;;31.80;;
58874;SDS011;44652;49.040;12.126;2023-02-12T08:24:29;57.03;;;31.00;;
58874;SDS011;44652;49.040;12.126;2023-02-12T08:26:56;57.97;;;32.55;;
58874;SDS011;44652;49.040;12.126;2023-02-12T08:29:24;64.72;;;33.80;;
58874;SDS011;44652;49.040;12.126;2023-02-12T08:31:54;60.45;;;33.45;;
58874;SDS011;44652;49.040;12.126;2023-02-12T08:34:23;62.30;;;32.60;;
58874;SDS011;44652;49.040;12.126;2023-02-12T08:36:50;64.75;;;32.72;;
58874;SDS011;44652;49.040;12.126;2023-02-12T08:39:17;60.63;;;31.65;;
58874;SDS011;44652;49.040;12.126;2023-02-12T08:41:44;60.17;;;32.00;;
58874;SDS011;44652;49.040;12.126;2023-02-12T08:44:11;62.45;;;33.35;;
58874;SDS011;44652;49.040;12.126;2023-02-12T08:46:39;60.65;;;31.30;;
58874;SDS011;44652;49.040;12.126;2023-02-12T08:49:07;62.08;;;32.85;;
58874;SDS011;44652;49.040;12.126;2023-02-12T08:51:35;55.55;;;31.65;;
58874;SDS011;44652;49.040;12.126;2023-02-12T08:54:04;62.13;;;33.72;;
58874;SDS011;44652;49.040;12.126;2023-02-12T08:56:32;61.88;;;33.65;;
58874;SDS011;44652;49.040;12.126;2023-02-12T08:58:59;60.17;;;32.40;;
58874;SDS011;44652;49.040;12.126;2023-02-12T09:01:27;65.93;;;35.03;;
58874;SDS011;44652;49.040;12.126;2023-02-12T09:03:54;57.03;;;32.77;;
58874;SDS011;44652;49.040;12.126;2023-02-12T09:06:21;59.70;;;32.63;;
58874;SDS011;44652;49.040;12.126;2023-02-12T09:08:48;60.83;;;33.17;;
58874;SDS011;44652;49.040;12.126;2023-02-12T09:11:15;60.25;;;32.65;;
58874;SDS011;44652;49.040;12.126;2023-02-12T09:13:42;55.10;;;32.53;;
58874;SDS011;44652;49.040;12.126;2023-02-12T09:16:09;56.13;;;30.55;;
58874;SDS011;44652;49.040;12.126;2023-02-12T09:18:36;61.55;;;32.95;;
58874;SDS011;44652;49.040;12.126;2023-02-12T09:21:07;62.13;;;33.30;;
58874;SDS011;44652;49.040;12.126;2023-02-12T09:23:33;63.67;;;35.58;;
58874;SDS011;44652;49.040;12.126;2023-02-12T09:26:02;66.40;;;36.35;;
58874;SDS011;44652;49.040;12.126;2023-02-12T09:28:29;64.18;;;33.53;;
58874;SDS011;44652;49.040;12.126;2023-02-12T09:30:56;57.95;;;34.40;;
58874;SDS011;44652;49.040;12.126;2023-02-12T09:33:23;56.97;;;32.38;;
58874;SDS011;44652;49.040;12.126;2023-02-12T09:35:49;62.33;;;32.72;;
58874;SDS011;44652;49.040;12.126;2023-02-12T09:38:16;52.33;;;30.40;;
58874;SDS011;44652;49.040;12.126;2023-02-12T09:43:19;56.35;;;31.55;;
58874;SDS011;44652;49.040;12.126;2023-02-12T09:46:00;55.47;;;31.52;;
58874;SDS011;44652;49.040;12.126;2023-02-12T09:51:06;54.58;;;30.85;;
58874;SDS011;44652;49.040;12.126;2023-02-12T09:53:34;53.58;;;30.90;;
58874;SDS011;44652;49.040;12.126;2023-02-12T09:56:01;53.47;;;30.08;;
58874;SDS011;44652;49.040;12.126;2023-02-12T09:58:41;53.85;;;30.83;;
58874;SDS011;44652;49.040;12.126;2023-02-12T10:01:11;49.17;;;28.20;;
58874;SDS011;44652;49.040;12.126;2023-02-12T10:03:39;49.90;;;28.33;;
58874;SDS011;44652;49.040;12.126;2023-02-12T10:06:40;51.20;;;30.08;;
58874;SDS011;44652;49.040;12.126;2023-02-12T10:11:52;50.70;;;27.73;;
58874;SDS011;44652;49.040;12.126;2023-02-12T10:17:16;47.95;;;26.33;;
58874;SDS011;44652;49.040;12.126;2023-02-12T10:22:36;47.10;;;25.77;;
58874;SDS011;44652;49.040;12.126;2023-02-12T10:27:59;47.33;;;24.35;;
58874;SDS011;44652;49.040;12.126;2023-02-12T10:30:27;45.10;;;25.60;;
58874;SDS011;44652;49.040;12.126;2023-02-12T10:33:00;49.45;;;25.02;;
58874;SDS011;44652;49.040;12.126;2023-02-12T10:35:28;49.97;;;26.58;;
58874;SDS011;44652;49.040;12.126;2023-02-12T10:38:30;46.42;;;25.75;;
58874;SDS011;44652;49.040;12.126;2023-02-12T10:40:48;50.55;;;27.38;;
58874;SDS011;44652;49.040;12.126;2023-02-12T10:43:16;45.97;;;24.77;;
58874;SDS011;44652;49.040;12.126;2023-02-12T10:45:42;44.85;;;25.40;;
58874;SDS011;44652;49.040;12.126;2023-02-12T10:48:14;49.45;;;26.85;;
58874;SDS011;44652;49.040;12.126;2023-02-12T10:53:33;45.53;;;26.30;;
58874;SDS011;44652;49.040;12.126;2023-02-12T10:58:39;41.70;;;25.52;;
58874;SDS011;44652;49.040;12.126;2023-02-12T11:01:13;43.27;;;24.13;;
58874;SDS011;44652;49.040;12.126;2023-02-12T11:03:40;44.25;;;25.52;;
58874;SDS011;44652;49.040;12.126;2023-02-12T11:06:11;43.55;;;25.58;;
58874;SDS011;44652;49.040;12.126;2023-02-12T11:08:39;43.92;;;24.92;;
58874;SDS011;44652;49.040;12.126;2023-02-12T11:11:17;43.85;;;25.35;;
58874;SDS011;44652;49.040;12.126;2023-02-12T11:18:55;46.80;;;25.80;;
58874;SDS011;44652;49.040;12.126;2023-02-12T11:21:22;42.10;;;24.98;;
58874;SDS011;44652;49.040;12.126;2023-02-12T11:23:49;47.08;;;25.80;;
58874;SDS011;44652;49.040;12.126;2023-02-12T11:28:55;44.13;;;25.42;;
58874;SDS011;44652;49.040;12.126;2023-02-12T11:31:24;44.70;;;26.15;;
58874;SDS011;44652;49.040;12.126;2023-02-12T11:36:20;48.55;;;26.33;;
58874;SDS011;44652;49.040;12.126;2023-02-12T11:38:49;49.08;;;26.80;;
58874;SDS011;44652;49.040;12.126;2023-02-12T11:41:20;46.88;;;28.65;;
58874;SDS011;44652;49.040;12.126;2023-02-12T11:43:48;42.72;;;26.58;;
58874;SDS011;44652;49.040;12.126;2023-02-12T11:46:24;45.95;;;27.15;;
58874;SDS011;44652;49.040;12.126;2023-02-12T11:48:51;48.85;;;26.60;;
58874;SDS011;44652;49.040;12.126;2023-02-12T11:51:20;47.03;;;27.50;;
58874;SDS011;44652;49.040;12.126;2023-02-12T11:53:50;46.58;;;27.42;;
58874;SDS011;44652;49.040;12.126;2023-02-12T11:58:44;45.85;;;26.95;;
58874;SDS011;44652;49.040;12.126;2023-02-12T12:01:14;45.30;;;27.48;;
58874;SDS011;44652;49.040;12.126;2023-02-12T12:06:43;47.08;;;29.02;;
58874;SDS011;44652;49.040;12.126;2023-02-12T12:12:01;43.10;;;26.27;;
58874;SDS011;44652;49.040;12.126;2023-02-12T12:14:38;42.22;;;27.25;;
58874;SDS011;44652;49.040;12.126;2023-02-12T12:17:29;43.13;;;28.10;;
58874;SDS011;44652;49.040;12.126;2023-02-12T12:20:21;48.13;;;29.23;;
58874;SDS011;44652;49.040;12.126;2023-02-12T12:22:49;48.03;;;28.90;;
58874;SDS011;44652;49.040;12.126;2023-02-12T12:25:21;44.08;;;27.08;;
58874;SDS011;44652;49.040;12.126;2023-02-12T12:28:10;41.40;;;27.17;;
58874;SDS011;44652;49.040;12.126;2023-02-12T12:36:03;42.92;;;26.25;;
58874;SDS011;44652;49.040;12.126;2023-02-12T12:39:33;44.25;;;26.98;;
58874;SDS011;44652;49.040;12.126;2023-02-12T12:44:21;43.85;;;26.33;;
58874;SDS011;44652;49.040;12.126;2023-02-12T12:52:16;38.33;;;24.98;;
58874;SDS011;44652;49.040;12.126;2023-02-12T12:57:58;37.47;;;24.70;;
58874;SDS011;44652;49.040;12.126;2023-02-12T13:01:15;38.63;;;24.48;;
58874;SDS011;44652;49.040;12.126;2023-02-12T13:10:59;40.35;;;25.65;;
58874;SDS011;44652;49.040;12.126;2023-02-12T13:13:30;38.45;;;24.83;;
58874;SDS011;44652;49.040;12.126;2023-02-12T13:23:53;43.50;;;26.75;;
58874;SDS011;44652;49.040;12.126;2023-02-12T13:26:28;39.15;;;25.65;;
58874;SDS011;44652;49.040;12.126;2023-02-12T13:29:00;36.03;;;23.05;;
58874;SDS011;44652;49.040;12.126;2023-02-12T13:31:30;36.25;;;24.70;;
58874;SDS011;44652;49.040;12.126;2023-02-12T13:34:01;36.90;;;25.05;;
58874;SDS011;44652;49.040;12.126;2023-02-12T13:36:29;37.60;;;25.00;;
58874;SDS011;44652;49.040;12.126;2023-02-12T13:41:28;37.13;;;24.75;;
58874;SDS011;44652;49.040;12.126;2023-02-12T13:48:56;33.80;;;23.58;;
58874;SDS011;44652;49.040;12.126;2023-02-12T13:51:45;34.08;;;23.65;;
58874;SDS011;44652;49.040;12.126;2023-02-12T13:54:16;34.33;;;22.95;;
58874;SDS011;44652;49.040;12.126;2023-02-12T13:56:47;35.80;;;23.73;;
58874;SDS011;44652;49.040;12.126;2023-02-12T14:02:03;48.47;;;24.50;;
58874;SDS011;44652;49.040;12.126;2023-02-12T14:04:42;33.15;;;22.70;;
58874;SDS011;44652;49.040;12.126;2023-02-12T14:07:10;34.45;;;24.40;;
58874;SDS011;44652;49.040;12.126;2023-02-12T14:12:14;35.72;;;23.63;;
58874;SDS011;44652;49.040;12.126;2023-02-12T14:14:43;36.47;;;24.13;;
58874;SDS011;44652;49.040;12.126;2023-02-12T14:27:45;35.33;;;23.92;;
58874;SDS011;44652;49.040;12.126;2023-02-12T14:35:33;37.60;;;25.02;;
58874;SDS011;44652;49.040;12.126;2023-02-12T14:43:01;36.78;;;22.90;;
58874;SDS011;44652;49.040;12.126;2023-02-12T14:45:31;39.38;;;24.83;;
58874;SDS011;44652;49.040;12.126;2023-02-12T14:47:59;34.95;;;23.75;;
58874;SDS011;44652;49.040;12.126;2023-02-12T14:50:36;39.92;;;24.48;;
58874;SDS011;44652;49.040;12.126;2023-02-12T14:53:05;36.60;;;21.88;;
58874;SDS011;44652;49.040;12.126;2023-02-12T14:55:33;36.30;;;23.00;;
58874;SDS011;44652;49.040;12.126;2023-02-12T14:58:04;35.33;;;23.05;;
58874;SDS011;44652;49.040;12.126;2023-02-12T15:00:33;36.40;;;22.50;;
58874;SDS011;44652;49.040;12.126;2023-02-12T15:03:04;36.47;;;23.45;;
58874;SDS011;44652;49.040;12.126;2023-02-12T15:05:35;36.50;;;23.70;;
58874;SDS011;44652;49.040;12.126;2023-02-12T15:10:46;36.70;;;22.67;;
58874;SDS011;44652;49.040;12.126;2023-02-12T15:15:54;38.30;;;24.02;;
58874;SDS011;44652;49.040;12.126;2023-02-12T15:24:08;39.15;;;24.27;;
58874;SDS011;44652;49.040;12.126;2023-02-12T15:26:36;37.83;;;24.60;;
58874;SDS011;44652;49.040;12.126;2023-02-12T15:29:12;36.22;;;23.40;;
58874;SDS011;44652;49.040;12.126;2023-02-12T15:31:41;43.50;;;26.10;;
58874;SDS011;44652;49.040;12.126;2023-02-12T15:34:12;43.38;;;25.90;;
58874;SDS011;44652;49.040;12.126;2023-02-12T15:36:43;37.92;;;23.95;;
58874;SDS011;44652;49.040;12.126;2023-02-12T15:39:14;40.60;;;26.08;;
58874;SDS011;44652;49.040;12.126;2023-02-12T15:41:43;45.58;;;26.33;;
58874;SDS011;44652;49.040;12.126;2023-02-12T15:44:27;38.25;;;24.85;;
58874;SDS011;44652;49.040;12.126;2023-02-12T15:49:23;40.70;;;25.80;;
58874;SDS011;44652;49.040;12.126;2023-02-12T15:51:51;41.10;;;25.70;;
58874;SDS011;44652;49.040;12.126;2023-02-12T15:54:17;41.75;;;25.38;;
58874;SDS011;44652;49.040;12.126;2023-02-12T15:56:44;37.58;;;25.25;;
58874;SDS011;44652;49.040;12.126;2023-02-12T15:59:29;40.30;;;25.02;;
58874;SDS011;44652;49.040;12.126;2023-02-12T16:01:57;42.72;;;26.00;;
58874;SDS011;44652;49.040;12.126;2023-02-12T16:04:24;38.20;;;24.83;;
58874;SDS011;44652;49.040;12.126;2023-02-12T16:06:52;42.43;;;26.47;;
58874;SDS011;44652;49.040;12.126;2023-02-12T16:09:25;42.75;;;25.95;;
58874;SDS011;44652;49.040;12.126;2023-02-12T16:11:54;51.25;;;31.45;;
58874;SDS011;44652;49.040;12.126;2023-02-12T16:14:23;52.58;;;31.38;;
58874;SDS011;44652;49.040;12.126;2023-02-12T16:16:51;53.38;;;30.77;;
58874;SDS011;44652;49.040;12.126;2023-02-12T16:19:22;53.33;;;31.65;;
58874;SDS011;44652;49.040;12.126;2023-02-12T16:21:50;41.72;;;26.08;;
58874;SDS011;44652;49.040;12.126;2023-02-12T16:25:00;37.67;;;24.10;;
58874;SDS011;44652;49.040;12.126;2023-02-12T16:29:43;39.95;;;25.88;;
58874;SDS011;44652;49.040;12.126;2023-02-12T16:32:24;42.53;;;27.20;;
58874;SDS011;44652;49.040;12.126;2023-02-12T16:34:59;38.83;;;26.20;;
58874;SDS011;44652;49.040;12.126;2023-02-12T16:42:28;38.30;;;26.17;;
58874;SDS011;44652;49.040;12.126;2023-02-12T16:44:55;41.17;;;27.38;;
58874;SDS011;44652;49.040;12.126;2023-02-12T16:47:22;41.72;;;26.95;;
58874;SDS011;44652;49.040;12.126;2023-02-12T16:49:57;39.92;;;26.92;;
58874;SDS011;44652;49.040;12.126;2023-02-12T16:54:53;40.53;;;26.40;;
58874;SDS011;44652;49.040;12.126;2023-02-12T16:57:20;40.28;;;25.58;;
58874;SDS011;44652;49.040;12.126;2023-02-12T16:59:46;43.45;;;27.08;;
58874;SDS011;44652;49.040;12.126;2023-02-12T17:02:14;43.83;;;27.85;;
58874;SDS011;44652;49.040;12.126;2023-02-12T17:04:41;60.97;;;35.10;;
58874;SDS011;44652;49.040;12.126;2023-02-12T17:07:18;62.95;;;38.97;;
58874;SDS011;44652;49.040;12.126;2023-02-12T17:09:45;112.63;;;47.28;;
58874;SDS011;44652;49.040;12.126;2023-02-12T17:12:12;87.82;;;43.17;;